CheckWX is a tool to help pilots better visualize weather data.  It is not intended as a substitute for an official pre-flight weather briefing.

12:50:03 UTC

HEAT METAR
Assiut International Airport
Assiut, Egypt
Current

2 hours ago

HEAT 191100Z 35011KT CAVOK 32/17 Q1014 NOSIG
Observed
Sep-19 @ 11:00 UTC
Wind
  • 350° at 11 KTS
Visibility
10,000+ meters
Flight Rules
VFR
Cloud Levels
  • Clear skies
Temperature
32°C / 90°F
Dewpoint
17°C / 63°F
Heat Index
33°C / 91°F
Humidity
41%
Altimeter
29.94" Hg
Pressure
1013.92 hPa
Previous

3 hours ago

HEAT 191000Z 34010KT CAVOK 31/16 Q1014 NOSIG
Observed
Sep-19 @ 10:00 UTC
Wind
  • 340° at 10 KTS
Visibility
10,000+ meters
Flight Rules
VFR
Cloud Levels
  • Clear skies
Temperature
31°C / 88°F
Dewpoint
16°C / 61°F
Heat Index
31°C / 88°F
Humidity
40%
Altimeter
29.94" Hg
Pressure
1013.92 hPa
Previous

4 hours ago

HEAT 190900Z 35010KT CAVOK 30/17 Q1015 NOSIG
Observed
Sep-19 @ 09:00 UTC
Wind
  • 350° at 10 KTS
Visibility
10,000+ meters
Flight Rules
VFR
Cloud Levels
  • Clear skies
Temperature
30°C / 86°F
Dewpoint
17°C / 63°F
Heat Index
31°C / 87°F
Humidity
46%
Altimeter
29.97" Hg
Pressure
1014.92 hPa